createdAt,value
2022-10-14T00:01:24.270Z,27.67
2022-10-14T00:03:52.829Z,29.98
2022-10-14T00:06:27.791Z,27.52
2022-10-14T00:08:55.729Z,25.77
2022-10-14T00:11:28.341Z,26.77
2022-10-14T00:14:16.816Z,23.65
2022-10-14T00:16:47.003Z,27.88
2022-10-14T00:21:46.204Z,27.58
2022-10-14T00:24:17.070Z,29.08
2022-10-14T00:26:45.271Z,27.10
2022-10-14T00:29:18.991Z,25.23
2022-10-14T00:31:47.715Z,27.42
2022-10-14T00:34:16.211Z,25.57
2022-10-14T00:36:44.671Z,25.52
2022-10-14T00:39:16.042Z,24.98
2022-10-14T00:41:43.800Z,25.67
2022-10-14T00:44:11.038Z,22.80
2022-10-14T00:46:41.844Z,25.17
2022-10-14T00:52:06.316Z,25.30
2022-10-14T00:54:44.941Z,22.15
2022-10-14T00:57:12.437Z,22.27
2022-10-14T00:59:40.408Z,23.10
2022-10-14T01:02:07.653Z,20.92
2022-10-14T01:04:39.508Z,22.40
2022-10-14T01:07:34.597Z,23.88
2022-10-14T01:10:44.466Z,23.88
2022-10-14T01:13:34.600Z,24.10
2022-10-14T01:16:35.831Z,23.02
2022-10-14T01:19:05.917Z,23.33
2022-10-14T01:21:48.689Z,24.05
2022-10-14T01:24:36.236Z,21.70
2022-10-14T01:27:28.952Z,22.73
2022-10-14T01:30:16.313Z,24.33
2022-10-14T01:33:09.070Z,22.45
2022-10-14T01:36:01.038Z,22.20
2022-10-14T01:38:44.142Z,23.90
2022-10-14T01:41:31.171Z,25.17
2022-10-14T01:44:08.540Z,24.58
2022-10-14T01:46:41.457Z,24.15
2022-10-14T01:49:20.888Z,23.20
2022-10-14T01:51:54.651Z,23.08
2022-10-14T01:54:31.678Z,26.25
2022-10-14T01:57:03.621Z,23.90
2022-10-14T01:59:34.044Z,23.73
2022-10-14T02:02:01.405Z,25.75
2022-10-14T02:04:29.300Z,24.95
2022-10-14T02:07:40.193Z,24.50
2022-10-14T02:10:38.835Z,24.60
2022-10-14T02:13:34.086Z,23.08
2022-10-14T02:16:19.298Z,22.05
2022-10-14T02:19:06.087Z,21.20
2022-10-14T02:21:52.082Z,23.40
2022-10-14T02:24:27.369Z,22.75
2022-10-14T02:26:58.699Z,22.65
2022-10-14T02:29:28.124Z,21.67
2022-10-14T02:31:57.961Z,24.10
2022-10-14T02:34:26.400Z,22.02
2022-10-14T02:36:56.282Z,21.70
2022-10-14T02:39:35.692Z,21.67
2022-10-14T02:44:34.888Z,21.75
2022-10-14T02:47:02.170Z,23.58
2022-10-14T02:49:30.592Z,21.70
2022-10-14T02:51:57.850Z,20.90
2022-10-14T02:54:25.130Z,21.92
2022-10-14T02:56:52.330Z,22.88
2022-10-14T02:59:19.593Z,21.63
2022-10-14T03:01:47.232Z,22.35
2022-10-14T03:04:15.274Z,20.65
2022-10-14T03:06:42.880Z,21.25
2022-10-14T03:09:10.179Z,20.83
2022-10-14T03:11:40.670Z,20.33
2022-10-14T03:14:13.319Z,21.73
2022-10-14T03:16:43.170Z,20.17
2022-10-14T03:19:14.926Z,20.60
2022-10-14T03:21:49.121Z,20.13
2022-10-14T03:24:19.953Z,21.60
2022-10-14T03:26:52.221Z,21.92
2022-10-14T03:29:25.230Z,20.27
2022-10-14T03:32:00.964Z,19.10
2022-10-14T03:34:46.876Z,20.13
2022-10-14T03:37:19.876Z,19.15
2022-10-14T03:39:51.703Z,20.27
2022-10-14T03:42:19.287Z,18.88
2022-10-14T03:44:48.550Z,19.65
2022-10-14T03:47:20.437Z,19.60
2022-10-14T03:49:48.287Z,19.38
2022-10-14T03:52:27.359Z,18.20
2022-10-14T03:55:04.281Z,19.73
2022-10-14T03:57:32.388Z,18.20
2022-10-14T04:00:00.776Z,17.90
2022-10-14T04:02:48.245Z,18.10
2022-10-14T04:08:06.494Z,17.33
2022-10-14T04:10:35.142Z,19.13
2022-10-14T04:13:02.363Z,19.17
2022-10-14T04:15:37.061Z,18.40
2022-10-14T04:18:13.349Z,18.33
2022-10-14T04:20:42.297Z,18.08
2022-10-14T04:23:10.528Z,17.90
2022-10-14T04:25:40.976Z,18.70
2022-10-14T04:28:08.329Z,18.63
2022-10-14T04:30:45.879Z,18.63
2022-10-14T04:33:18.862Z,18.70
2022-10-14T04:35:48.173Z,18.13
2022-10-14T04:38:22.492Z,18.60
2022-10-14T04:40:55.665Z,16.08
2022-10-14T04:43:23.804Z,17.70
2022-10-14T04:45:52.168Z,18.17
2022-10-14T04:48:25.657Z,17.63
2022-10-14T04:50:54.118Z,16.95
2022-10-14T04:53:50.475Z,17.30
2022-10-14T04:56:38.276Z,16.17
2022-10-14T04:59:06.242Z,18.23
2022-10-14T05:01:53.484Z,17.75
2022-10-14T05:04:21.518Z,18.27
2022-10-14T05:06:50.800Z,18.58
2022-10-14T05:09:19.434Z,16.35
2022-10-14T05:11:46.681Z,16.35
2022-10-14T05:14:17.584Z,18.52
2022-10-14T05:16:48.412Z,16.65
2022-10-14T05:19:20.407Z,16.98
2022-10-14T05:24:25.947Z,16.77
2022-10-14T05:26:53.436Z,17.40
2022-10-14T05:29:20.762Z,18.08
2022-10-14T05:31:50.617Z,17.30
2022-10-14T05:34:33.442Z,16.63
2022-10-14T05:37:03.238Z,17.02
2022-10-14T05:39:37.102Z,16.95
2022-10-14T05:42:05.734Z,17.38
2022-10-14T05:44:34.768Z,16.00
2022-10-14T05:47:03.095Z,16.40
2022-10-14T05:49:30.316Z,17.92
2022-10-14T05:52:00.059Z,17.23
2022-10-14T05:54:27.637Z,17.02
2022-10-14T05:56:57.394Z,16.45
2022-10-14T05:59:25.624Z,15.98
2022-10-14T06:01:52.893Z,15.55
2022-10-14T06:04:21.557Z,15.65
2022-10-14T06:06:49.069Z,15.35
2022-10-14T06:09:16.720Z,15.60
2022-10-14T06:11:44.596Z,14.40
2022-10-14T06:14:12.380Z,14.35
2022-10-14T06:16:40.741Z,15.45
2022-10-14T06:19:08.210Z,14.90
2022-10-14T06:21:35.495Z,15.32
2022-10-14T06:24:02.711Z,15.00
2022-10-14T06:26:29.903Z,14.95
2022-10-14T06:28:57.574Z,13.80
2022-10-14T06:31:27.498Z,15.95
2022-10-14T06:33:58.743Z,14.52
2022-10-14T06:36:27.057Z,14.35
2022-10-14T06:38:54.938Z,14.15
2022-10-14T06:41:22.290Z,14.30
2022-10-14T06:43:49.515Z,14.65
2022-10-14T06:46:17.036Z,16.10
2022-10-14T06:48:49.366Z,14.25
2022-10-14T06:51:18.133Z,13.00
2022-10-14T06:53:45.271Z,14.60
2022-10-14T06:56:12.660Z,15.15
2022-10-14T06:58:39.859Z,15.27
2022-10-14T07:01:08.962Z,14.48
2022-10-14T07:03:39.047Z,14.85
2022-10-14T07:06:08.354Z,15.07
2022-10-14T07:08:36.080Z,15.82
2022-10-14T07:11:04.312Z,13.95
2022-10-14T07:13:31.926Z,13.20
2022-10-14T07:15:59.499Z,15.38
2022-10-14T07:18:26.957Z,13.93
2022-10-14T07:20:54.274Z,13.95
2022-10-14T07:23:21.496Z,13.05
2022-10-14T07:25:48.660Z,13.15
2022-10-14T07:28:16.275Z,12.60
2022-10-14T07:30:43.537Z,12.20
2022-10-14T07:33:10.817Z,17.17
2022-10-14T07:35:39.134Z,13.07
2022-10-14T07:38:06.408Z,12.55
2022-10-14T07:40:33.740Z,11.68
2022-10-14T07:43:00.893Z,11.60
2022-10-14T07:45:30.676Z,11.68
2022-10-14T07:47:58.026Z,11.35
2022-10-14T07:50:25.883Z,13.65
2022-10-14T07:52:54.915Z,13.40
2022-10-14T07:55:24.942Z,14.05
2022-10-14T07:57:52.076Z,12.57
2022-10-14T08:00:19.539Z,12.82
2022-10-14T08:02:46.723Z,13.63
2022-10-14T08:05:36.569Z,13.82
2022-10-14T08:08:01.167Z,15.30
2022-10-14T08:10:28.477Z,14.40
2022-10-14T08:12:57.879Z,14.32
2022-10-14T08:15:28.626Z,14.90
2022-10-14T08:17:57.037Z,14.13
2022-10-14T08:20:24.418Z,13.70
2022-10-14T08:22:51.680Z,12.82
2022-10-14T08:25:19.086Z,13.35
2022-10-14T08:27:51.189Z,15.70
2022-10-14T08:30:18.912Z,14.35
2022-10-14T08:32:46.331Z,13.68
2022-10-14T08:35:13.568Z,14.43
2022-10-14T08:37:40.779Z,13.80
2022-10-14T08:40:15.251Z,13.45
2022-10-14T08:43:02.077Z,14.48
2022-10-14T08:45:45.588Z,14.80
2022-10-14T08:48:19.851Z,13.57
2022-10-14T08:51:10.997Z,12.77
2022-10-14T08:53:48.767Z,14.02
2022-10-14T08:56:17.610Z,13.52
2022-10-14T08:58:50.631Z,15.23
2022-10-14T09:01:49.313Z,13.02
2022-10-14T09:04:17.694Z,14.07
2022-10-14T09:06:48.903Z,13.90
2022-10-14T09:09:43.522Z,12.40
2022-10-14T09:12:16.719Z,13.38
2022-10-14T09:15:05.375Z,14.15
2022-10-14T09:17:48.373Z,12.73
2022-10-14T09:20:21.137Z,13.23
2022-10-14T09:23:22.963Z,13.32
2022-10-14T09:26:17.555Z,13.10
2022-10-14T09:28:46.102Z,12.98
2022-10-14T09:31:14.377Z,14.00
2022-10-14T09:33:44.217Z,13.10
2022-10-14T09:36:19.420Z,12.70
2022-10-14T09:38:54.079Z,12.40
2022-10-14T09:41:30.415Z,12.50
2022-10-14T09:44:25.387Z,13.35
2022-10-14T09:47:12.292Z,12.50
2022-10-14T09:49:45.755Z,13.52
2022-10-14T09:52:26.228Z,12.90
2022-10-14T09:55:00.652Z,12.20
2022-10-14T09:57:28.436Z,13.65
2022-10-14T10:00:02.023Z,13.25
2022-10-14T10:02:43.702Z,14.23
2022-10-14T10:05:36.126Z,13.20
2022-10-14T10:08:21.644Z,12.23
2022-10-14T10:11:10.725Z,13.75
2022-10-14T10:13:47.203Z,13.90
2022-10-14T10:16:26.563Z,13.05
2022-10-14T10:18:56.086Z,13.35
2022-10-14T10:21:30.318Z,13.07
2022-10-14T10:24:01.353Z,13.43
2022-10-14T10:26:34.386Z,12.27
2022-10-14T10:29:05.809Z,13.45
2022-10-14T10:31:50.975Z,13.15
2022-10-14T10:34:45.855Z,13.63
2022-10-14T10:37:20.256Z,13.65
2022-10-14T10:40:09.439Z,13.25
2022-10-14T10:43:20.554Z,13.10
2022-10-14T10:46:13.881Z,13.10
2022-10-14T10:48:55.578Z,11.52
2022-10-14T10:51:29.475Z,13.73
2022-10-14T10:54:35.813Z,12.32
2022-10-14T10:57:46.842Z,11.77
2022-10-14T11:03:40.385Z,11.63
2022-10-14T11:06:43.441Z,10.63
2022-10-14T11:10:03.640Z,10.13
2022-10-14T11:12:54.200Z,10.13
2022-10-14T11:15:42.777Z,10.35
2022-10-14T11:18:49.608Z,9.90
2022-10-14T11:21:47.636Z,10.40
2022-10-14T11:24:26.898Z,9.60
2022-10-14T11:27:09.597Z,11.43
2022-10-14T11:30:01.571Z,10.07
2022-10-14T11:33:10.848Z,9.52
2022-10-14T11:35:56.388Z,10.48
2022-10-14T11:38:48.442Z,9.60
2022-10-14T11:42:13.683Z,9.38
2022-10-14T11:44:43.876Z,9.38
2022-10-14T11:47:28.267Z,9.93
2022-10-14T11:50:02.217Z,9.50
2022-10-14T11:52:50.166Z,10.20
2022-10-14T11:55:26.263Z,9.68
2022-10-14T11:58:12.109Z,9.90
2022-10-14T12:01:19.464Z,9.52
2022-10-14T12:04:11.233Z,10.43
2022-10-14T12:06:53.518Z,11.07
2022-10-14T12:09:39.145Z,11.30
2022-10-14T12:12:15.335Z,10.40
2022-10-14T12:14:51.675Z,11.52
2022-10-14T12:17:55.039Z,11.35
2022-10-14T12:20:55.404Z,10.10
2022-10-14T12:24:04.657Z,10.82
2022-10-14T12:26:52.329Z,11.88
2022-10-14T12:29:49.885Z,12.52
2022-10-14T12:32:17.037Z,12.45
2022-10-14T12:34:47.496Z,11.90
2022-10-14T12:40:02.852Z,12.68
2022-10-14T12:42:33.269Z,13.25
2022-10-14T12:45:23.662Z,12.73
2022-10-14T12:48:20.767Z,11.35
2022-10-14T12:50:50.219Z,12.05
2022-10-14T12:53:31.000Z,11.20
2022-10-14T12:56:04.448Z,11.35
2022-10-14T12:58:41.528Z,11.15
2022-10-14T13:01:23.951Z,11.20
2022-10-14T13:04:20.042Z,11.43
2022-10-14T13:07:42.135Z,12.02
2022-10-14T13:10:47.193Z,11.35
2022-10-14T13:13:40.315Z,12.40
2022-10-14T13:16:23.649Z,12.35
2022-10-14T13:18:58.043Z,12.05
2022-10-14T13:21:36.839Z,13.32
2022-10-14T13:24:16.478Z,12.48
2022-10-14T13:26:55.542Z,12.25
2022-10-14T13:30:00.839Z,12.68
2022-10-14T13:33:12.501Z,12.68
2022-10-14T13:35:51.607Z,12.18
2022-10-14T13:38:22.617Z,13.70
2022-10-14T13:40:56.831Z,12.43
2022-10-14T13:43:33.144Z,12.65
2022-10-14T13:46:08.618Z,12.65
2022-10-14T13:48:40.776Z,12.15
2022-10-14T13:54:32.857Z,11.65
2022-10-14T13:57:42.686Z,12.73
2022-10-14T14:02:51.792Z,12.52
2022-10-14T14:11:18.123Z,12.15
2022-10-14T14:14:00.402Z,12.05
2022-10-14T14:16:49.416Z,11.95
2022-10-14T14:19:33.777Z,12.02
2022-10-14T14:22:24.445Z,12.35
2022-10-14T14:24:53.219Z,11.48
2022-10-14T14:27:24.044Z,9.93
2022-10-14T14:29:54.185Z,9.20
2022-10-14T14:32:30.120Z,10.27
2022-10-14T14:34:57.750Z,9.32
2022-10-14T14:37:48.113Z,9.40
2022-10-14T14:40:25.785Z,8.07
2022-10-14T14:43:02.114Z,7.47
2022-10-14T14:45:46.465Z,7.70
2022-10-14T14:48:16.874Z,7.85
2022-10-14T14:53:29.634Z,7.78
2022-10-14T14:55:56.997Z,7.78
2022-10-14T14:58:52.976Z,7.38
2022-10-14T15:01:27.942Z,7.82
2022-10-14T15:04:33.877Z,10.45
2022-10-14T15:07:11.789Z,11.25
2022-10-14T15:09:46.484Z,10.82
2022-10-14T15:12:34.487Z,11.68
2022-10-14T15:15:04.110Z,10.77
2022-10-14T15:17:40.571Z,14.60
2022-10-14T15:20:11.155Z,13.32
2022-10-14T15:25:23.556Z,10.55
2022-10-14T15:28:02.354Z,8.07
2022-10-14T15:30:39.942Z,7.85
2022-10-14T15:33:23.010Z,9.05
2022-10-14T15:36:00.855Z,9.32
2022-10-14T15:41:04.880Z,8.85
2022-10-14T15:43:32.904Z,8.38
2022-10-14T15:46:19.355Z,8.10
2022-10-14T15:48:55.067Z,7.80
2022-10-14T15:51:24.212Z,8.25
2022-10-14T15:53:52.084Z,8.10
2022-10-14T15:56:21.340Z,9.60
2022-10-14T15:58:49.823Z,10.40
2022-10-14T16:01:22.917Z,10.45
2022-10-14T16:03:55.426Z,10.43
2022-10-14T16:06:24.543Z,11.52
2022-10-14T16:08:52.169Z,11.15
2022-10-14T16:11:28.885Z,11.30
2022-10-14T16:13:56.822Z,10.95
2022-10-14T16:16:46.553Z,9.05
2022-10-14T16:19:13.815Z,10.47
2022-10-14T16:21:41.405Z,10.45
2022-10-14T16:24:16.639Z,10.60
2022-10-14T16:26:43.941Z,9.82
2022-10-14T16:29:11.740Z,9.18
2022-10-14T16:31:39.027Z,9.25
2022-10-14T16:34:06.450Z,10.43
2022-10-14T16:36:33.688Z,10.30
2022-10-14T16:39:03.467Z,9.73
2022-10-14T16:41:31.033Z,7.97
2022-10-14T16:43:58.487Z,9.30
2022-10-14T16:46:45.584Z,9.13
2022-10-14T16:49:12.852Z,9.57
2022-10-14T16:51:41.456Z,9.35
2022-10-14T16:54:09.303Z,8.77
2022-10-14T16:56:54.918Z,10.02
2022-10-14T16:59:24.128Z,14.07
2022-10-14T17:01:52.286Z,21.30
2022-10-14T17:04:20.346Z,24.55
2022-10-14T17:06:51.868Z,21.42
2022-10-14T17:09:19.998Z,14.27
2022-10-14T17:11:50.061Z,15.15
2022-10-14T17:14:24.268Z,17.98
2022-10-14T17:16:54.750Z,28.52
2022-10-14T17:19:23.999Z,30.05
2022-10-14T17:21:51.357Z,33.38
2022-10-14T17:24:18.864Z,36.15
2022-10-14T17:26:46.980Z,43.05
2022-10-14T17:29:14.546Z,45.72
2022-10-14T17:31:41.896Z,38.13
2022-10-14T17:34:10.328Z,35.22
2022-10-14T17:36:38.907Z,34.20
2022-10-14T17:39:06.496Z,37.70
2022-10-14T17:41:33.999Z,33.00
2022-10-14T17:44:01.714Z,30.40
2022-10-14T17:46:31.534Z,28.33
2022-10-14T17:49:03.808Z,27.00
2022-10-14T17:51:32.306Z,24.98
2022-10-14T17:54:05.671Z,23.45
2022-10-14T17:56:35.527Z,18.73
2022-10-14T17:59:06.192Z,18.33
2022-10-14T18:04:21.667Z,15.40
2022-10-14T18:06:49.059Z,14.15
2022-10-14T18:09:16.339Z,14.32
2022-10-14T18:14:33.568Z,13.52
2022-10-14T18:17:00.930Z,12.95
2022-10-14T18:19:28.359Z,14.50
2022-10-14T18:21:55.763Z,13.98
2022-10-14T18:24:23.698Z,13.93
2022-10-14T18:26:52.626Z,11.68
2022-10-14T18:29:20.036Z,12.93
2022-10-14T18:34:24.932Z,12.10
2022-10-14T18:36:52.220Z,12.75
2022-10-14T18:39:20.821Z,12.90
2022-10-14T18:41:48.336Z,12.27
2022-10-14T18:44:15.714Z,12.52
2022-10-14T18:46:42.998Z,11.15
2022-10-14T18:49:12.110Z,12.40
2022-10-14T18:51:40.572Z,11.02
2022-10-14T18:54:15.697Z,12.52
2022-10-14T18:56:44.567Z,11.70
2022-10-14T18:59:18.043Z,11.88
2022-10-14T19:01:46.640Z,11.63
2022-10-14T19:04:15.913Z,10.13
2022-10-14T19:06:48.560Z,10.48
2022-10-14T19:09:21.790Z,9.70
2022-10-14T19:11:53.119Z,10.02
2022-10-14T19:14:22.567Z,9.32
2022-10-14T19:16:50.069Z,8.90
2022-10-14T19:19:19.947Z,9.77
2022-10-14T19:21:54.455Z,9.63
2022-10-14T19:24:22.241Z,8.93
2022-10-14T19:26:50.180Z,8.77
2022-10-14T19:29:18.890Z,9.25
2022-10-14T19:31:46.081Z,8.10
2022-10-14T19:34:16.015Z,8.70
2022-10-14T19:36:44.757Z,8.90
2022-10-14T19:39:15.744Z,9.02
2022-10-14T19:41:44.975Z,8.27
2022-10-14T19:44:14.430Z,7.85
2022-10-14T19:46:42.394Z,8.65
2022-10-14T19:49:13.400Z,8.27
2022-10-14T19:51:41.317Z,10.30
2022-10-14T19:54:10.789Z,8.85
2022-10-14T19:56:38.091Z,8.65
2022-10-14T19:59:06.154Z,9.10
2022-10-14T20:01:33.679Z,9.27
2022-10-14T20:04:03.184Z,10.85
2022-10-14T20:06:35.473Z,10.63
2022-10-14T20:09:03.340Z,9.93
2022-10-14T20:11:31.355Z,10.63
2022-10-14T20:13:58.647Z,11.32
2022-10-14T20:16:27.170Z,9.88
2022-10-14T20:18:55.810Z,10.65
2022-10-14T20:21:23.859Z,9.88
2022-10-14T20:23:51.508Z,9.77
2022-10-14T20:26:21.650Z,9.38
2022-10-14T20:28:50.211Z,10.23
2022-10-14T20:31:20.800Z,9.60
2022-10-14T20:33:48.854Z,9.45
2022-10-14T20:36:20.037Z,9.57
2022-10-14T20:38:49.070Z,9.15
2022-10-14T20:41:26.657Z,9.55
2022-10-14T20:43:55.359Z,9.35
2022-10-14T20:46:24.662Z,8.45
2022-10-14T20:48:57.100Z,9.68
2022-10-14T20:51:25.101Z,9.13
2022-10-14T20:54:01.683Z,9.68
2022-10-14T20:56:33.538Z,9.50
2022-10-14T20:59:08.609Z,10.50
2022-10-14T21:01:37.279Z,9.60
2022-10-14T21:04:07.362Z,9.63
2022-10-14T21:06:35.462Z,9.52
2022-10-14T21:09:02.925Z,9.02
2022-10-14T21:11:31.248Z,9.60
2022-10-14T21:14:00.412Z,10.43
2022-10-14T21:16:34.566Z,9.80
2022-10-14T21:19:09.226Z,11.38
2022-10-14T21:21:42.894Z,10.75
2022-10-14T21:24:14.848Z,10.43
2022-10-14T21:26:42.573Z,11.00
2022-10-14T21:29:10.323Z,11.95
2022-10-14T21:31:38.479Z,11.65
2022-10-14T21:34:06.677Z,13.30
2022-10-14T21:36:36.125Z,12.32
2022-10-14T21:39:08.336Z,12.07
2022-10-14T21:41:36.624Z,11.85
2022-10-14T21:44:04.804Z,12.80
2022-10-14T21:46:32.416Z,11.55
2022-10-14T21:49:00.221Z,11.23
2022-10-14T21:51:30.995Z,12.45
2022-10-14T21:56:27.377Z,11.60
2022-10-14T21:58:55.668Z,12.23
2022-10-14T22:01:27.267Z,12.88
2022-10-14T22:04:00.130Z,13.55
2022-10-14T22:06:28.256Z,13.75
2022-10-14T22:08:58.313Z,13.63
2022-10-14T22:11:32.806Z,14.95
2022-10-14T22:14:02.888Z,15.35
2022-10-14T22:16:30.958Z,14.68
2022-10-14T22:19:02.056Z,15.93
2022-10-14T22:21:32.662Z,13.93
2022-10-14T22:24:00.365Z,14.63
2022-10-14T22:26:29.836Z,14.68
2022-10-14T22:29:04.474Z,16.35
2022-10-14T22:31:33.929Z,14.65
2022-10-14T22:34:07.352Z,14.85
2022-10-14T22:36:35.798Z,15.73
2022-10-14T22:39:07.598Z,16.05
2022-10-14T22:41:36.092Z,15.52
2022-10-14T22:44:05.463Z,14.93
2022-10-14T22:46:35.738Z,16.08
2022-10-14T22:49:03.604Z,14.77
2022-10-14T22:51:40.857Z,17.67
2022-10-14T22:54:09.021Z,14.15
2022-10-14T22:56:36.419Z,14.52
2022-10-14T22:59:09.750Z,15.15
2022-10-14T23:01:38.895Z,16.00
2022-10-14T23:04:07.466Z,15.25
2022-10-14T23:06:35.336Z,15.65
2022-10-14T23:09:03.160Z,16.92
2022-10-14T23:11:34.717Z,16.10
2022-10-14T23:14:06.144Z,16.08
2022-10-14T23:16:35.444Z,17.13
2022-10-14T23:19:02.961Z,18.10
2022-10-14T23:21:33.860Z,16.77
2022-10-14T23:24:06.198Z,18.05
2022-10-14T23:26:35.628Z,17.73
2022-10-14T23:29:07.344Z,17.88
2022-10-14T23:31:36.582Z,17.58
2022-10-14T23:34:12.341Z,16.95
2022-10-14T23:36:39.631Z,18.00
2022-10-14T23:39:07.461Z,18.35
2022-10-14T23:41:34.727Z,17.83
2022-10-14T23:44:02.122Z,20.00
2022-10-14T23:46:29.329Z,19.83
2022-10-14T23:49:07.620Z,18.23
2022-10-14T23:51:42.264Z,18.42
2022-10-14T23:54:09.690Z,19.25
2022-10-14T23:56:37.432Z,18.95
2022-10-14T23:59:04.731Z,21.88
